createdAt,value
2022-08-07T00:02:37.292Z,58.48
2022-08-07T00:04:35.371Z,58.37
2022-08-07T00:07:20.041Z,58.74
2022-08-07T00:10:26.340Z,58.77
2022-08-07T00:13:17.463Z,58.92
2022-08-07T00:16:07.571Z,58.71
2022-08-07T00:18:50.705Z,58.91
2022-08-07T00:21:57.155Z,58.66
2022-08-07T00:24:38.403Z,58.28
2022-08-07T00:27:23.134Z,58.28
2022-08-07T00:30:27.589Z,58.09
2022-08-07T00:33:11.754Z,57.38
2022-08-07T00:35:55.117Z,57.15
2022-08-07T00:38:39.828Z,56.57
2022-08-07T00:41:33.695Z,56.55
2022-08-07T00:44:28.729Z,56.82
2022-08-07T00:47:15.963Z,56.83
2022-08-07T00:50:20.122Z,57.02
2022-08-07T00:53:18.533Z,56.85
2022-08-07T00:56:04.004Z,56.88
2022-08-07T00:58:52.685Z,57.05
2022-08-07T01:01:44.254Z,56.91
2022-08-07T01:04:30.292Z,57.11
2022-08-07T01:07:16.281Z,57.27
2022-08-07T01:10:06.557Z,57.17
2022-08-07T01:12:55.271Z,56.88
2022-08-07T01:16:05.622Z,56.88
2022-08-07T01:18:48.359Z,56.87
2022-08-07T01:21:36.942Z,56.97
2022-08-07T01:24:21.773Z,56.81
2022-08-07T01:27:06.526Z,56.98
2022-08-07T01:30:03.862Z,56.87
2022-08-07T01:32:47.077Z,57.16
2022-08-07T01:35:52.883Z,57.13
2022-08-07T01:38:35.027Z,57.27
2022-08-07T01:41:27.965Z,57.17
2022-08-07T01:44:16.391Z,57.14
2022-08-07T01:47:01.169Z,57.01
2022-08-07T01:49:59.315Z,57.22
2022-08-07T01:52:49.747Z,57.42
2022-08-07T01:55:46.607Z,57.37
2022-08-07T01:58:34.247Z,57.11
2022-08-07T02:02:02.741Z,57.39
2022-08-07T02:04:38.228Z,57.28
2022-08-07T02:07:44.925Z,57.50
2022-08-07T02:10:42.325Z,57.82
2022-08-07T02:13:57.768Z,57.81
2022-08-07T02:16:37.111Z,58.01
2022-08-07T02:20:07.241Z,58.08
2022-08-07T02:22:27.045Z,58.54
2022-08-07T02:25:17.527Z,58.10
2022-08-07T02:28:13.895Z,58.40
2022-08-07T02:31:18.975Z,58.85
2022-08-07T02:34:17.273Z,58.99
2022-08-07T02:37:08.919Z,59.26
2022-08-07T02:40:02.111Z,59.40
2022-08-07T02:43:07.788Z,59.59
2022-08-07T02:45:58.876Z,59.87
2022-08-07T02:48:54.764Z,59.86
2022-08-07T02:51:49.883Z,60.25
2022-08-07T02:54:40.850Z,60.29
2022-08-07T02:57:28.790Z,60.65
2022-08-07T03:00:18.332Z,60.99
2022-08-07T03:03:07.257Z,61.77
2022-08-07T03:06:00.928Z,61.86
2022-08-07T03:08:44.687Z,61.90
2022-08-07T03:11:28.832Z,62.56
2022-08-07T03:14:17.803Z,62.79
2022-08-07T03:17:04.427Z,63.08
2022-08-07T03:19:54.812Z,62.87
2022-08-07T03:22:42.851Z,63.45
2022-08-07T03:25:40.459Z,63.72
2022-08-07T03:28:37.500Z,63.76
2022-08-07T03:31:24.522Z,64.43
2022-08-07T03:34:18.194Z,64.22
2022-08-07T03:37:11.863Z,64.55
2022-08-07T03:40:15.692Z,64.70
2022-08-07T03:43:01.414Z,64.52
2022-08-07T03:45:49.553Z,64.93
2022-08-07T03:48:45.417Z,65.26
2022-08-07T03:51:47.070Z,65.30
2022-08-07T03:54:54.374Z,65.40
2022-08-07T03:58:33.395Z,65.65
2022-08-07T04:00:54.027Z,65.29
2022-08-07T04:03:54.039Z,65.42
2022-08-07T04:06:41.650Z,65.13
2022-08-07T04:09:44.672Z,65.39
2022-08-07T04:12:32.997Z,65.03
2022-08-07T04:15:19.967Z,65.05
2022-08-07T04:18:57.945Z,64.94
2022-08-07T04:21:10.983Z,65.19
2022-08-07T04:24:03.601Z,64.97
2022-08-07T04:26:50.217Z,65.49
2022-08-07T04:29:48.662Z,64.88
2022-08-07T04:32:39.292Z,65.00
2022-08-07T04:35:35.433Z,65.10
2022-08-07T04:38:24.095Z,65.06
2022-08-07T04:41:07.956Z,65.01
2022-08-07T04:44:12.216Z,64.85
2022-08-07T04:47:10.768Z,65.12
2022-08-07T04:50:12.039Z,64.53
2022-08-07T04:53:06.022Z,64.50
2022-08-07T04:58:15.549Z,64.45
2022-08-07T05:00:07.821Z,64.38
2022-08-07T05:02:20.609Z,64.34
2022-08-07T05:05:52.024Z,64.36
2022-08-07T05:08:59.916Z,63.78
2022-08-07T05:11:57.465Z,63.26
2022-08-07T05:14:54.052Z,63.00
2022-08-07T05:17:52.804Z,62.83
2022-08-07T05:20:42.878Z,62.79
2022-08-07T05:23:35.476Z,62.92
2022-08-07T05:26:24.261Z,62.56
2022-08-07T05:29:16.846Z,62.20
2022-08-07T05:32:03.457Z,61.31
2022-08-07T05:34:50.644Z,60.79
2022-08-07T05:37:40.776Z,60.65
2022-08-07T05:40:25.982Z,60.64
2022-08-07T05:43:12.178Z,61.08
2022-08-07T05:45:58.089Z,60.37
2022-08-07T05:48:58.285Z,60.71
2022-08-07T05:51:48.022Z,59.74
2022-08-07T05:54:53.806Z,59.03
2022-08-07T05:57:41.996Z,59.00
2022-08-07T06:00:27.003Z,58.62
2022-08-07T06:03:17.997Z,57.51
2022-08-07T06:06:01.708Z,57.95
2022-08-07T06:08:48.152Z,57.31
2022-08-07T06:11:35.294Z,57.02
2022-08-07T06:14:21.306Z,57.30
2022-08-07T06:17:12.597Z,57.45
2022-08-07T06:20:04.435Z,57.33
2022-08-07T06:23:04.117Z,56.81
2022-08-07T06:26:00.980Z,56.54
2022-08-07T06:28:50.622Z,56.69
2022-08-07T06:31:47.054Z,56.57
2022-08-07T06:34:34.631Z,56.51
2022-08-07T06:37:43.931Z,56.40
2022-08-07T06:40:22.303Z,55.81
2022-08-07T06:43:21.546Z,55.32
2022-08-07T06:46:35.028Z,55.53
2022-08-07T06:49:19.035Z,55.60
2022-08-07T06:52:07.552Z,54.89
2022-08-07T06:55:31.624Z,55.17
2022-08-07T06:58:02.343Z,54.89
2022-08-07T07:00:53.661Z,54.69
2022-08-07T07:03:48.615Z,54.26
2022-08-07T07:06:32.733Z,53.87
2022-08-07T07:09:24.540Z,53.52
2022-08-07T07:12:33.395Z,53.28
2022-08-07T07:15:23.936Z,53.42
2022-08-07T07:18:46.862Z,53.62
2022-08-07T07:21:24.338Z,53.68
2022-08-07T07:24:12.669Z,53.18
2022-08-07T07:27:00.187Z,52.76
2022-08-07T07:30:08.678Z,52.61
2022-08-07T07:32:54.736Z,52.90
2022-08-07T07:35:44.080Z,53.26
2022-08-07T07:38:47.661Z,52.35
2022-08-07T07:41:50.736Z,52.50
2022-08-07T07:44:39.858Z,52.57
2022-08-07T07:47:24.450Z,52.60
2022-08-07T07:50:36.312Z,53.10
2022-08-07T07:53:23.085Z,52.77
2022-08-07T07:56:09.463Z,52.45
2022-08-07T07:58:54.464Z,51.75
2022-08-07T08:02:03.463Z,51.57
2022-08-07T08:04:46.122Z,51.19
2022-08-07T08:07:51.536Z,51.03
2022-08-07T08:10:41.792Z,51.11
2022-08-07T08:13:36.812Z,51.30
2022-08-07T08:16:38.904Z,50.99
2022-08-07T08:20:15.999Z,50.62
2022-08-07T08:22:55.997Z,50.53
2022-08-07T08:26:06.641Z,50.51
2022-08-07T08:28:53.394Z,50.22
2022-08-07T08:34:49.975Z,50.12
2022-08-07T08:38:01.507Z,49.64
2022-08-07T08:40:47.472Z,49.50
2022-08-07T08:43:42.629Z,49.37
2022-08-07T08:46:44.907Z,49.25
2022-08-07T08:50:02.955Z,48.82
2022-08-07T08:52:54.976Z,48.90
2022-08-07T08:55:54.560Z,48.27
2022-08-07T08:58:54.546Z,47.63
2022-08-07T09:01:49.047Z,48.33
2022-08-07T09:04:42.381Z,48.02
2022-08-07T09:07:45.926Z,47.48
2022-08-07T09:10:38.847Z,47.58
2022-08-07T09:13:40.708Z,47.33
2022-08-07T09:16:41.928Z,47.48
2022-08-07T09:19:53.744Z,47.08
2022-08-07T09:24:34.136Z,46.63
2022-08-07T09:26:08.134Z,46.94
2022-08-07T09:30:04.953Z,46.34
2022-08-07T09:32:17.249Z,44.28
2022-08-07T09:36:04.206Z,45.37
2022-08-07T09:38:23.269Z,44.00
2022-08-07T09:41:15.822Z,44.37
2022-08-07T09:44:19.967Z,43.78
2022-08-07T09:47:49.986Z,44.14
2022-08-07T09:50:34.286Z,43.89
2022-08-07T09:53:22.572Z,44.25
2022-08-07T09:56:34.036Z,41.96
2022-08-07T09:59:44.605Z,41.88
2022-08-07T10:03:07.971Z,42.62
2022-08-07T10:06:17.955Z,39.86
2022-08-07T10:09:11.364Z,36.06
2022-08-07T10:12:18.097Z,40.13
2022-08-07T10:15:26.135Z,40.97
2022-08-07T10:18:46.235Z,40.67
2022-08-07T10:22:14.005Z,40.41
2022-08-07T10:25:14.309Z,39.58
2022-08-07T10:28:18.585Z,39.46
2022-08-07T10:31:14.984Z,38.86
2022-08-07T10:34:18.487Z,37.84
2022-08-07T10:37:48.393Z,37.13
2022-08-07T10:40:38.782Z,36.72
2022-08-07T10:43:34.661Z,36.21
2022-08-07T10:46:21.301Z,37.26
2022-08-07T10:49:14.414Z,37.10
2022-08-07T10:52:13.134Z,36.49
2022-08-07T10:55:02.022Z,36.21
2022-08-07T10:58:14.622Z,34.33
2022-08-07T11:01:15.305Z,33.89
2022-08-07T11:04:22.986Z,34.91
2022-08-07T11:07:56.092Z,34.72
2022-08-07T11:10:30.933Z,35.62
2022-08-07T11:14:41.883Z,34.56
2022-08-07T11:16:41.958Z,33.49
2022-08-07T11:19:32.105Z,33.87
2022-08-07T11:22:32.361Z,34.11
2022-08-07T11:25:26.827Z,34.78
2022-08-07T11:28:16.713Z,34.00
2022-08-07T11:31:08.864Z,34.32
2022-08-07T11:34:02.103Z,33.73
2022-08-07T11:37:00.233Z,33.40
2022-08-07T11:40:03.699Z,32.59
2022-08-07T11:42:59.112Z,33.22
2022-08-07T11:45:58.367Z,32.02
2022-08-07T11:49:51.130Z,32.86
2022-08-07T11:52:29.077Z,32.61
2022-08-07T11:56:09.718Z,32.90
2022-08-07T11:58:39.183Z,33.27
2022-08-07T12:01:58.639Z,31.48
2022-08-07T12:04:58.056Z,31.89
2022-08-07T12:07:53.533Z,31.52
2022-08-07T12:11:08.020Z,31.05
2022-08-07T12:13:59.374Z,31.85
2022-08-07T12:16:49.348Z,31.55
2022-08-07T12:20:03.232Z,30.43
2022-08-07T12:22:58.486Z,29.23
2022-08-07T12:26:21.961Z,31.35
2022-08-07T12:29:11.326Z,30.92
2022-08-07T12:32:05.417Z,31.42
2022-08-07T12:34:55.693Z,31.63
2022-08-07T12:38:10.835Z,32.07
2022-08-07T12:40:50.426Z,31.11
2022-08-07T12:44:03.357Z,30.23
2022-08-07T12:47:06.378Z,29.51
2022-08-07T12:50:04.512Z,29.72
2022-08-07T12:52:53.078Z,30.09
2022-08-07T12:56:03.076Z,29.63
2022-08-07T12:58:57.211Z,28.70
2022-08-07T13:01:53.582Z,29.41
2022-08-07T13:05:02.447Z,28.78
2022-08-07T13:08:22.091Z,28.67
2022-08-07T13:11:22.510Z,28.91
2022-08-07T13:14:20.207Z,28.58
2022-08-07T13:17:12.984Z,28.81
2022-08-07T13:20:07.279Z,29.56
2022-08-07T13:23:00.378Z,28.86
2022-08-07T13:26:00.869Z,28.77
2022-08-07T13:28:52.437Z,28.65
2022-08-07T13:31:57.570Z,28.05
2022-08-07T13:34:48.465Z,27.60
2022-08-07T13:37:42.950Z,27.42
2022-08-07T13:40:47.964Z,28.20
2022-08-07T13:43:35.881Z,28.09
2022-08-07T13:46:28.901Z,26.70
2022-08-07T13:50:33.660Z,26.70
2022-08-07T13:52:32.329Z,27.94
2022-08-07T13:55:26.300Z,27.23
2022-08-07T13:58:31.695Z,27.41
2022-08-07T14:01:21.930Z,27.67
2022-08-07T14:04:11.178Z,26.56
2022-08-07T14:06:58.480Z,27.71
2022-08-07T14:10:02.820Z,28.27
2022-08-07T14:12:55.740Z,26.66
2022-08-07T14:15:40.595Z,26.53
2022-08-07T14:18:30.838Z,25.51
2022-08-07T14:22:02.553Z,27.99
2022-08-07T14:24:29.076Z,28.92
2022-08-07T14:28:12.781Z,28.41
2022-08-07T14:30:32.808Z,27.81
2022-08-07T14:33:23.478Z,28.15
2022-08-07T14:36:08.857Z,28.68
2022-08-07T14:38:53.577Z,28.95
2022-08-07T14:42:20.437Z,29.14
2022-08-07T14:44:48.153Z,29.16
2022-08-07T14:47:35.641Z,28.50
2022-08-07T14:50:20.563Z,28.38
2022-08-07T14:53:08.111Z,28.45
2022-08-07T14:59:02.745Z,29.86
2022-08-07T15:07:54.070Z,30.71
2022-08-07T15:10:59.035Z,30.44
2022-08-07T15:13:51.766Z,30.70
2022-08-07T15:16:39.702Z,30.99
2022-08-07T15:25:57.142Z,31.80
2022-08-07T15:28:53.533Z,32.03
2022-08-07T15:32:01.697Z,31.22
2022-08-07T15:34:50.555Z,31.31
2022-08-07T15:38:04.592Z,31.45
2022-08-07T15:44:00.735Z,33.35
2022-08-07T15:46:52.719Z,32.76
2022-08-07T15:50:05.884Z,32.89
2022-08-07T15:52:42.207Z,33.18
2022-08-07T15:55:53.545Z,33.92
2022-08-07T15:58:52.170Z,33.85
2022-08-07T17:32:03.344Z,40.72
2022-08-07T17:35:32.912Z,40.46
2022-08-07T17:38:32.148Z,40.44
2022-08-07T17:42:01.961Z,41.02
2022-08-07T17:44:33.625Z,41.19
2022-08-07T17:47:38.320Z,40.88
2022-08-07T17:50:42.409Z,41.19
2022-08-07T17:54:02.428Z,40.93
2022-08-07T17:56:49.983Z,40.80
2022-08-07T17:59:41.421Z,41.10
2022-08-07T18:02:33.498Z,41.10
2022-08-07T18:06:02.673Z,41.22
2022-08-07T18:09:01.797Z,41.19
2022-08-07T18:12:17.810Z,40.45
2022-08-07T18:15:00.959Z,41.18
2022-08-07T18:18:46.130Z,41.37
2022-08-07T18:21:41.388Z,41.50
2022-08-07T18:24:12.120Z,41.78
2022-08-07T18:27:38.906Z,42.05
2022-08-07T18:30:31.055Z,41.79
2022-08-07T18:33:59.681Z,42.07
2022-08-07T18:36:55.026Z,42.67
2022-08-07T18:40:05.705Z,42.42
2022-08-07T18:43:04.106Z,42.54
2022-08-07T18:46:24.702Z,42.57
2022-08-07T18:50:32.632Z,43.51
2022-08-07T18:52:41.017Z,43.12
2022-08-07T18:55:40.858Z,42.70
2022-08-07T18:58:39.330Z,43.07
2022-08-07T19:02:18.264Z,42.83
2022-08-07T19:04:56.097Z,42.91
2022-08-07T19:07:58.704Z,43.61
2022-08-07T19:10:52.010Z,43.52
2022-08-07T19:13:51.080Z,43.20
2022-08-07T19:17:07.644Z,43.33
2022-08-07T19:19:59.812Z,43.33
2022-08-07T19:23:18.005Z,43.68
2022-08-07T19:26:23.696Z,43.67
2022-08-07T19:31:05.260Z,43.57
2022-08-07T19:32:27.283Z,43.42
2022-08-07T19:35:18.379Z,43.90
2022-08-07T19:38:15.926Z,43.76
2022-08-07T19:41:01.087Z,43.70
2022-08-07T19:43:51.906Z,43.70
2022-08-07T19:46:40.466Z,44.15
2022-08-07T19:49:58.103Z,43.80
2022-08-07T19:52:42.422Z,43.96
2022-08-07T19:55:57.317Z,44.06
2022-08-07T19:58:34.586Z,44.26
2022-08-07T20:01:18.353Z,44.77
2022-08-07T20:04:02.957Z,44.16
2022-08-07T20:06:49.014Z,44.51
2022-08-07T20:10:36.676Z,44.80
2022-08-07T20:12:43.048Z,44.67
2022-08-07T20:15:33.060Z,44.73
2022-08-07T20:18:21.748Z,44.82
2022-08-07T20:21:21.982Z,45.30
2022-08-07T20:24:15.896Z,45.86
2022-08-07T20:27:02.887Z,45.91
2022-08-07T20:29:56.730Z,46.20
2022-08-07T20:32:46.649Z,46.12
2022-08-07T20:35:36.506Z,46.27
2022-08-07T20:38:36.123Z,45.98
2022-08-07T20:41:40.345Z,45.95
2022-08-07T20:44:31.505Z,46.09
2022-08-07T20:47:26.385Z,46.50
2022-08-07T20:50:30.285Z,46.44
2022-08-07T20:53:15.656Z,46.53
2022-08-07T20:56:01.072Z,46.20
2022-08-07T20:58:48.333Z,46.78
2022-08-07T21:01:54.810Z,46.80
2022-08-07T21:04:40.870Z,46.67
2022-08-07T21:07:27.767Z,47.17
2022-08-07T21:10:14.877Z,47.22
2022-08-07T21:13:13.680Z,47.21
2022-08-07T21:16:02.970Z,47.44
2022-08-07T21:18:53.239Z,48.00
2022-08-07T21:21:56.937Z,48.06
2022-08-07T21:24:51.511Z,47.94
2022-08-07T21:27:47.060Z,48.03
2022-08-07T21:30:44.401Z,47.95
2022-08-07T21:33:41.345Z,48.18
2022-08-07T21:36:32.605Z,48.08
2022-08-07T21:39:45.456Z,48.37
2022-08-07T21:42:46.090Z,48.72
2022-08-07T21:46:08.116Z,48.20
2022-08-07T21:48:56.929Z,48.78
2022-08-07T21:51:54.936Z,48.41
2022-08-07T21:54:51.759Z,48.62
2022-08-07T21:57:52.004Z,48.59
2022-08-07T22:00:38.110Z,48.84
2022-08-07T22:03:32.068Z,48.73
2022-08-07T22:06:28.731Z,49.05
2022-08-07T22:09:20.354Z,49.08
2022-08-07T22:12:12.272Z,49.46
2022-08-07T22:16:43.193Z,49.41
2022-08-07T22:18:16.850Z,49.37
2022-08-07T22:21:11.482Z,49.38
2022-08-07T22:23:59.058Z,49.37
2022-08-07T22:26:48.072Z,48.97
2022-08-07T22:29:48.170Z,49.26
2022-08-07T22:32:42.252Z,49.21
2022-08-07T22:35:39.518Z,49.15
2022-08-07T22:38:33.343Z,49.24
2022-08-07T22:41:21.556Z,49.19
2022-08-07T22:44:26.891Z,49.51
2022-08-07T22:47:49.241Z,49.85
2022-08-07T22:50:59.803Z,49.81
2022-08-07T22:54:07.902Z,49.92
2022-08-07T22:57:03.358Z,49.72
2022-08-07T22:59:52.329Z,49.75
2022-08-07T23:02:48.693Z,50.16
2022-08-07T23:06:09.346Z,50.31
2022-08-07T23:10:06.339Z,50.40
2022-08-07T23:12:34.308Z,50.52
2022-08-07T23:16:06.348Z,50.53
2022-08-07T23:18:42.419Z,50.52
2022-08-07T23:21:30.483Z,50.38
2022-08-07T23:24:31.270Z,50.57
2022-08-07T23:27:34.489Z,51.12
2022-08-07T23:30:38.437Z,50.70
2022-08-07T23:34:35.634Z,51.01
2022-08-07T23:37:35.962Z,51.25
2022-08-07T23:40:41.217Z,51.04
2022-08-07T23:44:02.013Z,51.54
2022-08-07T23:47:09.883Z,51.17
2022-08-07T23:50:24.137Z,51.59
2022-08-07T23:53:21.223Z,51.31
2022-08-07T23:56:15.691Z,51.32
